Time;durP1;ratioP1;P1;durP2;ratioP2;P2;SDS_P1;SDS_P2;PMS_P1;PMS_P2;Temp;Humidity;BMP_temperature;BMP_pressure;BME280_temperature;BME280_humidity;BME280_pressure;Samples;Min_cycle;Max_cycle;Signal;HPM_P1;HPM_P2
2022/05/05 00:01:52;;;;;;;;;19.00;18.25;;;;;15.58;73.36;101908.53;5069548;28;49748;-67
2022/05/05 00:04:22;;;;;;;;;18.75;18.75;;;;;15.67;72.39;101927.25;5069786;28;49675;-67
2022/05/05 00:06:50;;;;;;;;;16.00;16.00;;;;;15.70;73.59;101937.00;5069317;27;49738;-67
2022/05/05 00:09:16;;;;;;;;;22.75;19.00;;;;;15.46;72.28;101905.66;5069453;28;49957;-68
2022/05/05 00:14:31;;;;;;;;;16.50;16.50;;;;;15.52;72.74;101926.03;5071070;28;49661;-67
2022/05/05 00:17:02;;;;;;;;;18.50;18.50;;;;;15.53;73.68;101941.06;5072692;28;50455;-67
2022/05/05 00:19:30;;;;;;;;;20.75;19.50;;;;;15.48;72.94;101940.97;5072851;28;49810;-67
2022/05/05 00:21:56;;;;;;;;;18.00;17.50;;;;;15.39;74.22;101932.84;5072717;28;49843;-67
2022/05/05 00:24:22;;;;;;;;;18.25;16.75;;;;;15.35;73.33;101931.91;5072917;28;50069;-68
2022/05/05 00:26:47;;;;;;;;;19.00;18.50;;;;;15.33;73.29;101930.09;5072570;27;49849;-67
2022/05/05 00:29:13;;;;;;;;;18.50;17.50;;;;;15.34;73.78;101943.34;5072888;28;49918;-68
2022/05/05 00:31:39;;;;;;;;;18.50;18.50;;;;;15.15;73.92;101912.09;5072899;28;49711;-67
2022/05/05 00:34:05;;;;;;;;;14.50;14.50;;;;;15.28;74.00;101940.59;5072797;28;50016;-67
2022/05/05 00:36:30;;;;;;;;;20.00;18.50;;;;;15.19;73.95;101927.16;5072340;27;50639;-67
2022/05/05 00:38:56;;;;;;;;;14.50;14.50;;;;;15.21;72.87;101935.13;5072235;27;49775;-67
2022/05/05 00:41:21;;;;;;;;;18.75;17.25;;;;;15.11;72.39;101918.19;5070159;27;49680;-67
2022/05/05 00:43:47;;;;;;;;;15.00;15.00;;;;;15.23;73.07;101950.16;5072681;28;49860;-66
2022/05/05 00:46:12;;;;;;;;;19.00;18.00;;;;;14.93;72.86;101900.19;5072278;28;50764;-67
2022/05/05 00:48:38;;;;;;;;;20.50;19.50;;;;;15.12;72.90;101928.78;5072393;27;49739;-67
2022/05/05 00:51:03;;;;;;;;;17.75;16.25;;;;;15.11;72.39;101939.34;5071116;28;49749;-67
2022/05/05 00:53:28;;;;;;;;;17.00;15.50;;;;;15.01;72.55;101932.06;5070738;28;50025;-66
2022/05/05 00:55:56;;;;;;;;;17.00;15.25;;;;;15.09;72.32;101941.97;5070417;28;52649;-67
2022/05/05 00:58:26;;;;;;;;;15.25;14.00;;;;;15.08;72.04;101947.22;5070634;27;50519;-67
2022/05/05 01:00:52;;;;;;;;;13.25;11.75;;;;;14.92;71.59;101922.19;5066217;28;50118;-67
2022/05/05 01:03:18;;;;;;;;;14.50;12.75;;;;;14.94;71.75;101925.75;5072776;28;50206;-67
2022/05/05 01:05:44;;;;;;;;;15.25;15.00;;;;;14.91;71.60;101930.97;5071972;28;49947;-68
2022/05/05 01:08:10;;;;;;;;;11.00;9.75;;;;;14.76;70.96;101913.03;5072206;28;49714;-67
2022/05/05 01:10:35;;;;;;;;;13.50;13.25;;;;;14.88;71.92;101930.94;5071884;28;49666;-68
2022/05/05 01:13:01;;;;;;;;;11.75;11.75;;;;;14.95;71.49;101950.44;5072199;28;49659;-68
2022/05/05 01:15:28;;;;;;;;;15.50;14.25;;;;;14.85;71.25;101942.31;5071901;28;50993;-68
2022/05/05 01:17:53;;;;;;;;;13.00;13.00;;;;;14.91;71.41;101951.25;5071987;28;49989;-67
2022/05/05 01:20:22;;;;;;;;;11.00;11.00;;;;;14.83;71.69;101938.75;5071995;28;49882;-67
2022/05/05 01:22:48;;;;;;;;;12.25;10.50;;;;;14.88;71.51;101950.31;5072113;28;49729;-66
2022/05/05 01:28:14;;;;;;;;;9.50;9.50;;;;;14.76;71.83;101934.16;5071941;28;49929;-69
2022/05/05 01:30:45;;;;;;;;;9.25;8.25;;;;;14.64;70.47;101909.22;5073507;27;49810;-68
2022/05/05 01:33:21;;;;;;;;;13.00;12.00;;;;;14.75;71.22;101942.97;5072159;27;49907;-70
2022/05/05 01:35:49;;;;;;;;;8.00;8.00;;;;;14.76;71.06;101950.03;5071742;27;50533;-67
2022/05/05 01:38:22;;;;;;;;;10.50;10.50;;;;;14.59;70.06;101919.72;5068049;28;49632;-70
2022/05/05 01:40:47;;;;;;;;;9.75;7.75;;;;;14.61;70.05;101936.47;5066072;28;49721;-67
2022/05/05 01:43:18;;;;;;;;;8.50;8.50;;;;;14.61;71.06;101941.78;5071712;28;49826;-67
2022/05/05 01:45:44;;;;;;;;;8.50;8.50;;;;;14.56;70.74;101939.00;5068368;28;50600;-67
2022/05/05 01:48:10;;;;;;;;;10.75;10.75;;;;;14.41;71.14;101919.25;5065192;28;49782;-67
2022/05/05 01:50:36;;;;;;;;;9.75;8.25;;;;;14.39;71.56;101908.66;5069613;28;49745;-68
2022/05/05 01:53:02;;;;;;;;;9.75;9.00;;;;;14.44;71.06;101936.06;5069560;28;50001;-68
2022/05/05 01:55:30;;;;;;;;;10.50;10.50;;;;;14.31;71.18;101926.06;5063883;28;51578;-67
2022/05/05 01:57:57;;;;;;;;;9.50;9.50;;;;;14.26;71.07;101931.22;5071475;27;49665;-68
2022/05/05 02:00:23;;;;;;;;;10.50;10.50;;;;;14.35;71.02;101942.88;5069293;27;50147;-67
2022/05/05 02:02:48;;;;;;;;;11.50;11.50;;;;;14.29;71.64;101933.94;5086114;27;49680;-68
2022/05/05 02:05:14;;;;;;;;;9.75;9.75;;;;;14.30;71.22;101941.03;5071084;28;50041;-67
2022/05/05 02:07:41;;;;;;;;;11.75;11.00;;;;;14.16;71.83;101918.63;5071292;28;49772;-67
2022/05/05 02:10:08;;;;;;;;;15.00;12.75;;;;;14.29;71.36;101943.63;5071001;28;49929;-67
2022/05/05 02:12:38;;;;;;;;;11.75;11.75;;;;;14.27;71.53;101938.28;5071348;27;49997;-67
2022/05/05 02:15:06;;;;;;;;;12.00;12.00;;;;;14.23;70.87;101939.06;5071096;27;51081;-67
2022/05/05 02:17:35;;;;;;;;;9.25;9.25;;;;;14.21;71.38;101946.06;5071264;28;49749;-67
2022/05/05 02:20:00;;;;;;;;;15.75;15.25;;;;;13.73;70.93;101861.25;5071196;28;50044;-67
2022/05/05 02:22:27;;;;;;;;;13.50;13.00;;;;;14.09;71.87;101929.94;5071272;27;49635;-67
2022/05/05 02:24:52;;;;;;;;;14.25;13.25;;;;;14.14;72.04;101945.88;5070448;28;50057;-67
2022/05/05 02:27:18;;;;;;;;;11.00;11.00;;;;;13.90;71.40;101903.94;5070619;28;49769;-67
2022/05/05 02:29:47;;;;;;;;;14.25;14.25;;;;;13.78;70.64;101896.56;5070963;28;49810;-66
2022/05/05 02:32:13;;;;;;;;;13.75;13.50;;;;;13.94;71.52;101917.22;5073330;28;49802;-67
2022/05/05 02:34:38;;;;;;;;;13.50;13.50;;;;;13.95;71.32;101926.03;5070811;28;49869;-66
2022/05/05 02:39:48;;;;;;;;;12.50;12.25;;;;;13.87;71.38;101911.75;5070720;28;49825;-67
2022/05/05 02:42:13;;;;;;;;;12.25;11.75;;;;;13.88;71.81;101913.53;5066644;28;49910;-67
2022/05/05 02:44:38;;;;;;;;;15.00;13.75;;;;;13.43;71.76;101842.91;5053878;28;51654;-67
2022/05/05 02:47:04;;;;;;;;;18.25;12.50;;;;;13.79;71.44;101914.19;5070453;28;49882;-67
2022/05/05 02:49:30;;;;;;;;;17.00;14.00;;;;;13.89;71.76;101945.22;5070614;28;49788;-66
2022/05/05 02:51:55;;;;;;;;;10.75;10.75;;;;;13.68;71.63;101902.44;5070854;27;50077;-68
2022/05/05 02:57:05;;;;;;;;;15.25;13.75;;;;;13.74;71.81;101923.75;5070712;28;49724;-68
2022/05/05 02:59:30;;;;;;;;;15.00;12.00;;;;;13.34;72.33;101862.00;5069090;28;50020;-66
2022/05/05 03:01:56;;;;;;;;;14.25;14.25;;;;;13.67;72.32;101921.78;5066925;28;49905;-67
2022/05/05 03:04:21;;;;;;;;;14.25;14.25;;;;;13.65;72.30;101918.22;5070219;28;51820;-67
2022/05/05 03:06:46;;;;;;;;;12.00;12.00;;;;;13.54;72.64;101902.09;5070280;27;49722;-67
2022/05/05 03:09:12;;;;;;;;;16.50;14.25;;;;;13.65;72.66;101921.75;5070219;28;49716;-67
2022/05/05 03:11:37;;;;;;;;;16.25;15.00;;;;;13.45;72.84;101888.66;5068025;28;49672;-67
2022/05/05 03:14:02;;;;;;;;;14.50;12.75;;;;;13.61;72.36;101925.16;5069318;28;53175;-67
2022/05/05 03:16:28;;;;;;;;;13.75;13.50;;;;;13.58;72.57;101916.25;5070240;28;49775;-67
2022/05/05 03:18:53;;;;;;;;;14.00;14.00;;;;;13.45;72.58;101900.09;5068730;28;49805;-68
2022/05/05 03:21:19;;;;;;;;;20.25;15.00;;;;;13.64;73.15;101940.19;5069400;28;50490;-68
2022/05/05 03:23:44;;;;;;;;;15.50;15.00;;;;;13.50;73.11;101915.16;5069835;27;51130;-67
2022/05/05 03:26:09;;;;;;;;;14.75;12.25;;;;;13.05;73.75;101845.34;5068775;28;49767;-67
2022/05/05 03:28:35;;;;;;;;;14.75;13.50;;;;;13.41;73.47;101922.00;5070325;27;49860;-68
2022/05/05 03:31:00;;;;;;;;;11.25;9.75;;;;;13.43;73.61;101911.47;5070360;28;49882;-69
2022/05/05 03:33:25;;;;;;;;;17.75;16.00;;;;;13.51;73.48;101933.69;5069924;27;49770;-69
2022/05/05 03:35:50;;;;;;;;;17.50;17.50;;;;;13.48;73.47;101922.13;5069999;28;49831;-67
2022/05/05 03:38:16;;;;;;;;;15.50;14.00;;;;;13.45;73.66;101921.22;5065311;28;49927;-68
2022/05/05 03:40:41;;;;;;;;;18.25;16.75;;;;;13.45;74.13;101934.41;5067014;28;49726;-68
2022/05/05 03:43:06;;;;;;;;;18.75;17.50;;;;;13.59;73.64;101945.31;5069683;27;49984;-68
2022/05/05 03:45:32;;;;;;;;;16.50;16.50;;;;;13.55;73.68;101934.66;5065648;28;49992;-67
2022/05/05 03:47:58;;;;;;;;;19.00;17.50;;;;;13.53;73.79;101929.34;5068239;28;49797;-68
2022/05/05 03:50:23;;;;;;;;;17.00;15.75;;;;;13.66;73.56;101949.91;5073016;28;49931;-67
2022/05/05 03:52:48;;;;;;;;;17.75;15.50;;;;;13.11;73.91;101850.78;5071559;28;50480;-67
2022/05/05 03:55:14;;;;;;;;;20.00;18.00;;;;;13.62;73.65;101942.78;5072773;28;49855;-68
2022/05/05 03:57:39;;;;;;;;;15.00;15.00;;;;;13.56;73.12;101934.69;5071855;28;49687;-67
2022/05/05 04:00:05;;;;;;;;;21.50;18.25;;;;;13.46;73.35;101911.56;5073587;28;49936;-68
2022/05/05 04:02:31;;;;;;;;;17.75;16.25;;;;;13.48;73.14;101917.75;5073184;27;50287;-68
2022/05/05 04:04:56;;;;;;;;;18.25;14.25;;;;;13.56;73.46;101937.31;5073382;28;49591;-68
2022/05/05 04:07:22;;;;;;;;;17.50;15.25;;;;;13.58;73.02;101943.53;5064044;28;49923;-67
2022/05/05 04:09:48;;;;;;;;;16.75;14.00;;;;;13.64;73.31;101950.72;5073145;28;49799;-67
2022/05/05 04:12:13;;;;;;;;;22.00;19.25;;;;;13.69;73.65;101951.72;5072006;28;50680;-66
2022/05/05 04:14:38;;;;;;;;;15.25;14.75;;;;;13.61;73.44;101946.28;5070446;28;50000;-67
2022/05/05 04:17:04;;;;;;;;;14.50;14.50;;;;;13.61;73.00;101945.38;5072698;28;50323;-68
2022/05/05 04:19:30;;;;;;;;;18.25;14.00;;;;;13.53;73.58;101926.69;5068901;28;50047;-67
2022/05/05 04:21:55;;;;;;;;;17.50;15.25;;;;;13.61;73.82;101941.00;5070058;27;49699;-67
2022/05/05 04:24:20;;;;;;;;;16.50;14.75;;;;;13.77;73.44;101973.94;5072584;28;49673;-68
2022/05/05 04:26:46;;;;;;;;;13.75;13.75;;;;;13.61;73.22;101943.63;5065245;28;49708;-67
2022/05/05 04:29:12;;;;;;;;;15.50;14.50;;;;;13.69;72.87;101968.47;5071997;28;49830;-67
2022/05/05 04:31:39;;;;;;;;;17.75;16.00;;;;;13.74;73.25;101981.78;5066392;28;49937;-67
2022/05/05 04:34:04;;;;;;;;;16.00;16.00;;;;;13.69;73.25;101973.75;5072739;28;49794;-67
2022/05/05 04:36:35;;;;;;;;;18.50;14.50;;;;;13.72;73.15;101980.88;5072856;27;49787;-67
2022/05/05 04:39:05;;;;;;;;;14.25;14.25;;;;;13.72;73.74;101979.13;5072618;28;49764;-67
2022/05/05 04:41:31;;;;;;;;;17.75;15.50;;;;;13.62;73.49;101966.53;5072459;27;51063;-67
2022/05/05 04:43:56;;;;;;;;;15.25;15.00;;;;;13.69;73.53;101975.47;5072699;28;49728;-67
2022/05/05 04:46:21;;;;;;;;;15.00;15.00;;;;;13.77;73.41;101976.59;5070543;28;49914;-67
2022/05/05 04:48:48;;;;;;;;;24.25;20.75;;;;;13.72;74.04;101976.47;5071477;28;50041;-67
2022/05/05 04:51:14;;;;;;;;;20.50;16.25;;;;;13.74;74.08;101974.78;5072239;28;50414;-67
2022/05/05 04:53:40;;;;;;;;;23.75;21.00;;;;;13.61;74.22;101951.56;5072113;28;49857;-67
2022/05/05 04:56:05;;;;;;;;;18.00;15.00;;;;;13.79;74.24;101980.16;5072454;28;49843;-68
2022/05/05 04:58:34;;;;;;;;;17.25;14.00;;;;;13.83;74.28;101989.97;5072691;28;49910;-68
2022/05/05 05:00:59;;;;;;;;;21.00;19.25;;;;;13.86;74.15;101984.75;5070068;27;50728;-67
2022/05/05 05:03:35;;;;;;;;;21.75;20.00;;;;;13.84;74.09;101977.66;5070877;28;50048;-67
2022/05/05 05:06:05;;;;;;;;;15.75;13.00;;;;;13.88;73.92;101987.44;5072221;27;49706;-68
2022/05/05 05:08:30;;;;;;;;;20.25;19.50;;;;;13.91;74.42;101985.78;5063936;27;49903;-68
2022/05/05 05:10:56;;;;;;;;;20.50;18.00;;;;;13.70;74.42;101948.25;5071907;28;51041;-67
2022/05/05 05:13:22;;;;;;;;;20.75;20.75;;;;;13.97;73.89;101990.31;5072126;28;49841;-67
2022/05/05 05:15:47;;;;;;;;;22.25;21.50;;;;;13.86;74.81;101973.31;5072048;27;49750;-67
2022/05/05 05:18:12;;;;;;;;;21.25;20.00;;;;;14.00;74.21;102006.25;5071009;28;50014;-68
2022/05/05 05:20:38;;;;;;;;;22.75;21.75;;;;;13.99;74.62;101997.44;5069838;28;55374;-67
2022/05/05 05:23:03;;;;;;;;;22.50;22.00;;;;;14.04;75.19;102005.47;5075593;28;49842;-67
2022/05/05 05:25:28;;;;;;;;;17.75;17.50;;;;;13.93;74.30;101993.75;5078190;28;49700;-68
2022/05/05 05:27:54;;;;;;;;;25.00;23.50;;;;;13.88;74.94;101977.75;5074995;28;49563;-68
2022/05/05 05:30:19;;;;;;;;;28.00;24.50;;;;;14.02;74.84;102005.44;5077541;28;49843;-70
2022/05/05 05:32:44;;;;;;;;;29.25;25.50;;;;;14.04;74.38;102003.72;5073107;27;49878;-67
2022/05/05 05:35:10;;;;;;;;;31.00;27.00;;;;;14.06;74.64;102006.41;5071769;28;49934;-67
2022/05/05 05:37:35;;;;;;;;;28.25;24.00;;;;;14.14;75.40;102004.88;5072087;28;49801;-69
2022/05/05 05:40:00;;;;;;;;;23.00;20.75;;;;;14.10;74.51;101996.84;5071267;28;50828;-68
2022/05/05 05:42:26;;;;;;;;;28.50;26.75;;;;;14.15;74.57;102003.13;5070490;28;49855;-67
2022/05/05 05:44:51;;;;;;;;;23.25;23.25;;;;;14.12;74.88;101996.03;5071695;28;49736;-68
2022/05/05 05:47:16;;;;;;;;;22.00;18.25;;;;;14.26;74.80;102004.28;5068444;28;49739;-67
2022/05/05 05:49:42;;;;;;;;;24.75;22.75;;;;;14.29;74.94;102002.63;5065333;28;49783;-67
2022/05/05 05:52:07;;;;;;;;;29.00;24.75;;;;;14.36;74.15;102001.00;5070857;28;49803;-67
2022/05/05 05:54:33;;;;;;;;;22.75;21.00;;;;;14.49;74.26;102007.56;5070240;28;49962;-67
2022/05/05 05:56:58;;;;;;;;;24.75;21.00;;;;;14.60;74.05;102012.22;5075446;28;49789;-67
2022/05/05 05:59:23;;;;;;;;;24.50;23.50;;;;;14.57;74.07;102003.31;5070632;28;49893;-67
2022/05/05 06:04:32;;;;;;;;;25.25;25.25;;;;;14.53;73.55;101983.88;5068913;28;49916;-71
2022/05/05 06:06:58;;;;;;;;;33.00;27.00;;;;;14.62;74.06;101996.41;5068710;28;49713;-63
2022/05/05 06:09:24;;;;;;;;;28.25;25.75;;;;;14.87;73.64;102025.22;5070820;27;49790;-63
2022/05/05 06:11:49;;;;;;;;;26.75;24.00;;;;;14.98;73.73;102035.16;5070221;28;49921;-63
2022/05/05 06:14:15;;;;;;;;;28.25;25.25;;;;;14.92;73.41;102022.66;5071186;28;49772;-64
2022/05/05 06:16:40;;;;;;;;;22.75;22.50;;;;;15.04;73.50;102024.69;5071360;28;49741;-67
2022/05/05 06:19:05;;;;;;;;;22.75;20.75;;;;;15.12;73.16;102039.88;5071789;28;49840;-63
2022/05/05 06:21:31;;;;;;;;;22.50;22.50;;;;;15.12;72.73;102026.66;5071056;27;49907;-63
2022/05/05 06:23:56;;;;;;;;;31.50;26.50;;;;;15.27;73.36;102041.09;5068736;27;49822;-63
2022/05/05 06:26:23;;;;;;;;;30.25;26.25;;;;;15.26;72.22;102026.97;5068293;28;49878;-65
2022/05/05 06:28:49;;;;;;;;;26.50;24.25;;;;;15.32;72.28;102028.84;5067874;28;49787;-62
2022/05/05 06:31:15;;;;;;;;;27.50;27.00;;;;;15.31;72.22;102020.00;5074834;27;49708;-66
2022/05/05 06:33:41;;;;;;;;;27.50;20.00;;;;;15.39;72.13;102022.81;5075508;27;49603;-63
2022/05/05 06:36:06;;;;;;;;;26.50;24.50;;;;;15.45;71.06;102030.91;5069628;28;49801;-67
2022/05/05 06:38:32;;;;;;;;;31.25;27.50;;;;;15.45;71.77;102026.50;5067113;27;51008;-66
2022/05/05 06:40:58;;;;;;;;;25.25;24.00;;;;;15.60;71.68;102057.69;5070155;27;49648;-66
2022/05/05 06:43:23;;;;;;;;;26.00;23.25;;;;;15.58;71.42;102045.28;5068862;28;49774;-64
2022/05/05 06:45:48;;;;;;;;;31.00;28.00;;;;;15.42;70.77;102025.53;5071578;28;50109;-71
2022/05/05 06:48:13;;;;;;;;;23.75;23.00;;;;;15.41;71.73;102031.69;5068888;28;50618;-66
2022/05/05 06:50:39;;;;;;;;;26.75;22.00;;;;;15.57;71.80;102056.72;5069211;28;49714;-66
2022/05/05 06:53:04;;;;;;;;;21.50;18.75;;;;;15.57;71.24;102051.44;5070865;27;49943;-66
2022/05/05 06:55:30;;;;;;;;;29.00;25.50;;;;;15.51;71.22;102049.53;5070469;28;49917;-69
2022/05/05 06:57:55;;;;;;;;;27.75;27.75;;;;;15.45;71.35;102046.78;5069157;28;50690;-81
2022/05/05 07:00:24;;;;;;;;;31.50;29.50;;;;;15.40;71.73;102030.78;5070450;28;49768;-69
2022/05/05 07:02:49;;;;;;;;;28.25;25.00;;;;;15.68;71.74;102066.69;5070044;27;49720;-68
2022/05/05 07:05:23;;;;;;;;;28.25;25.25;;;;;15.65;71.01;102055.16;5070386;27;49722;-69
2022/05/05 07:07:50;;;;;;;;;27.25;26.25;;;;;15.74;70.94;102065.94;5069776;28;49973;-70
2022/05/05 07:12:59;;;;;;;;;29.00;27.25;;;;;15.82;70.33;102059.03;5069332;28;49569;-70
2022/05/05 07:15:25;;;;;;;;;26.25;24.75;;;;;15.95;70.45;102074.31;5069262;28;49881;-73
2022/05/05 07:17:50;;;;;;;;;28.25;25.25;;;;;16.03;70.63;102074.47;5070019;27;50708;-65
2022/05/05 07:20:16;;;;;;;;;26.00;20.25;;;;;16.00;69.98;102064.69;5073059;27;49865;-65
2022/05/05 07:22:42;;;;;;;;;27.75;25.00;;;;;16.14;70.26;102064.97;5068771;28;50157;-64
2022/05/05 07:25:08;;;;;;;;;26.00;23.75;;;;;16.28;69.35;102068.75;5076123;27;49579;-63
2022/05/05 07:27:33;;;;;;;;;27.00;25.50;;;;;16.32;69.86;102048.50;5075698;27;50443;-62
2022/05/05 07:29:58;;;;;;;;;23.00;21.75;;;;;16.49;69.49;102067.34;5073938;28;49932;-69
2022/05/05 07:32:24;;;;;;;;;32.00;28.00;;;;;16.60;68.58;102050.78;5073804;28;49652;-63
2022/05/05 07:34:49;;;;;;;;;23.25;20.00;;;;;16.87;68.47;102083.91;5077228;27;50013;-61
2022/05/05 07:37:15;;;;;;;;;27.75;25.00;;;;;16.96;67.57;102072.56;5073527;28;50958;-61
2022/05/05 07:39:40;;;;;;;;;30.25;27.50;;;;;16.92;67.29;102066.34;5073457;28;49715;-61
2022/05/05 07:42:06;;;;;;;;;26.75;23.75;;;;;16.97;67.22;102067.28;5074018;27;49923;-63
2022/05/05 07:44:31;;;;;;;;;26.75;26.00;;;;;17.04;67.01;102073.56;5069823;28;49994;-65
2022/05/05 07:46:57;;;;;;;;;29.25;26.00;;;;;17.11;66.83;102068.38;5078249;28;49814;-64
2022/05/05 07:49:23;;;;;;;;;29.50;25.00;;;;;17.20;66.93;102075.59;5088372;28;49392;-64
2022/05/05 07:51:52;;;;;;;;;26.50;25.50;;;;;17.16;66.87;102045.44;5090449;27;49751;-64
2022/05/05 07:54:43;;;;;;;;;25.00;25.00;;;;;17.40;65.80;102079.41;5084112;28;49755;-64
2022/05/05 07:57:12;;;;;;;;;26.25;24.75;;;;;17.39;65.54;102063.47;5073275;28;50724;-63
2022/05/05 07:59:38;;;;;;;;;29.50;26.50;;;;;17.39;65.44;102067.03;5072982;28;49581;-64
2022/05/05 08:02:05;;;;;;;;;36.25;27.75;;;;;17.44;65.77;102067.97;5071966;28;49780;-65
2022/05/05 08:04:31;;;;;;;;;28.75;25.75;;;;;17.43;64.44;102079.44;5073427;28;49796;-64
2022/05/05 08:06:56;;;;;;;;;30.50;27.00;;;;;17.32;64.60;102070.44;5072801;28;50006;-64
2022/05/05 08:09:22;;;;;;;;;25.25;24.75;;;;;17.30;64.25;102074.84;5072817;28;49792;-65
2022/05/05 08:11:47;;;;;;;;;30.25;27.75;;;;;17.29;64.76;102069.53;5073221;28;49842;-64
2022/05/05 08:14:13;;;;;;;;;29.25;28.00;;;;;17.29;65.11;102066.88;5071828;28;49737;-64
2022/05/05 08:16:38;;;;;;;;;26.75;25.50;;;;;17.31;64.07;102094.31;5073000;28;50652;-64
2022/05/05 08:19:04;;;;;;;;;23.00;18.50;;;;;17.32;64.06;102082.84;5072970;28;49754;-65
2022/05/05 08:21:29;;;;;;;;;26.25;25.50;;;;;17.22;63.94;102073.84;5073151;27;49730;-65
2022/05/05 08:28:28;;;;;;;;;27.50;25.00;;;;;17.42;64.29;102082.97;5072902;28;49700;-64
2022/05/05 08:29:24;;;;;;;;;26.00;25.50;;;;;17.60;63.60;102092.97;5072777;28;49702;-65
2022/05/05 08:31:50;;;;;;;;;23.25;22.50;;;;;17.66;63.69;102086.81;5072732;28;49677;-64
2022/05/05 08:34:15;;;;;;;;;22.75;22.00;;;;;17.81;62.38;102088.81;5072961;28;49720;-64
2022/05/05 08:36:40;;;;;;;;;26.25;23.00;;;;;17.99;62.19;102089.03;5072666;27;50215;-64
2022/05/05 08:39:06;;;;;;;;;21.75;19.50;;;;;18.03;61.21;102082.88;5071089;28;49639;-64
2022/05/05 08:41:33;;;;;;;;;20.00;17.00;;;;;18.05;60.92;102053.66;5072347;28;49801;-65
2022/05/05 08:43:59;;;;;;;;;25.00;19.50;;;;;18.41;60.04;102080.59;5072737;28;49733;-64
2022/05/05 08:46:27;;;;;;;;;23.75;22.00;;;;;18.58;60.13;102088.75;5072260;27;49659;-64
2022/05/05 08:49:01;;;;;;;;;21.00;17.25;;;;;18.60;59.27;102077.25;5072682;28;49920;-63
2022/05/05 08:51:34;;;;;;;;;15.25;13.75;;;;;18.96;59.33;102089.09;5072540;28;49846;-64
2022/05/05 08:54:02;;;;;;;;;11.00;11.00;;;;;19.02;57.23;102088.25;5072703;28;49956;-66
2022/05/05 08:56:27;;;;;;;;;16.50;15.50;;;;;18.91;57.27;102087.25;5072438;28;51259;-68
2022/05/05 08:58:52;;;;;;;;;21.00;17.50;;;;;18.93;58.04;102102.38;5072281;28;49683;-68
2022/05/05 09:01:18;;;;;;;;;14.00;14.00;;;;;18.83;57.84;102095.22;5072217;28;49775;-69
2022/05/05 09:03:43;;;;;;;;;23.25;22.00;;;;;18.92;58.55;102100.63;5070871;28;49840;-67
2022/05/05 09:06:08;;;;;;;;;14.25;14.25;;;;;18.90;57.33;102091.69;5072475;27;50064;-69
2022/05/05 09:08:34;;;;;;;;;17.75;17.75;;;;;18.83;57.52;102097.88;5072364;27;49919;-65
2022/05/05 09:11:05;;;;;;;;;17.00;16.75;;;;;18.87;57.42;102108.53;5072124;28;49832;-64
2022/05/05 09:13:34;;;;;;;;;22.00;17.00;;;;;18.77;57.63;102089.84;5072252;28;49724;-69
2022/05/05 09:16:00;;;;;;;;;14.00;14.00;;;;;18.92;57.87;102110.38;5071909;28;50467;-64
2022/05/05 09:18:28;;;;;;;;;13.75;13.75;;;;;18.87;56.30;102103.22;5071857;28;49725;-65
2022/05/05 09:20:54;;;;;;;;;11.50;11.50;;;;;18.83;56.34;102098.78;5072318;28;49888;-66
2022/05/05 09:24:34;;;;;;;;;17.25;13.25;;;;;18.89;55.07;102111.22;5071725;27;49996;-64
2022/05/05 09:26:28;;;;;;;;;13.75;13.75;;;;;18.93;55.77;102088.19;5071364;27;50119;-64
2022/05/05 09:28:54;;;;;;;;;14.75;12.50;;;;;19.10;55.34;102075.88;5071831;28;49582;-67
2022/05/05 09:31:21;;;;;;;;;6.25;5.00;;;;;19.10;54.27;102076.75;5071578;28;49871;-64
2022/05/05 09:33:47;;;;;;;;;10.00;10.00;;;;;19.30;53.71;102087.56;5072264;27;50299;-64
2022/05/05 09:36:24;;;;;;;;;7.50;7.50;;;;;19.53;54.34;102079.69;5071583;28;50579;-67
2022/05/05 09:38:50;;;;;;;;;11.50;11.50;;;;;19.74;53.65;102100.22;5071426;28;49848;-67
2022/05/05 09:41:16;;;;;;;;;15.00;12.25;;;;;19.69;52.27;102102.91;5071423;27;49843;-64
2022/05/05 09:43:41;;;;;;;;;8.00;7.25;;;;;19.50;52.07;102100.09;5071736;28;50037;-68
2022/05/05 09:46:36;;;;;;;;;9.75;9.75;;;;;19.33;53.02;102103.56;5069901;28;52314;-65
2022/05/05 09:49:07;;;;;;;;;11.00;9.50;;;;;19.14;52.55;102094.56;5066428;28;49811;-67
2022/05/05 09:51:42;;;;;;;;;11.50;11.50;;;;;19.23;51.73;102098.16;5071615;28;49640;-64
2022/05/05 09:59:50;;;;;;;;;8.00;8.00;;;;;19.61;52.58;102078.00;5071739;28;50092;-64
2022/05/05 10:04:00;;;;;;;;;12.25;10.75;;;;;19.73;51.18;102069.16;5071471;27;49711;-65
2022/05/05 10:05:15;;;;;;;;;11.00;9.00;;;;;19.78;50.94;102093.13;5067202;28;49949;-64
2022/05/05 10:07:44;;;;;;;;;10.00;9.00;;;;;19.67;51.38;102101.09;5071238;28;49956;-65
2022/05/05 10:10:10;;;;;;;;;8.25;8.00;;;;;19.51;51.88;102092.13;5070992;28;49772;-64
2022/05/05 10:12:36;;;;;;;;;11.00;11.00;;;;;19.30;50.59;102111.53;5071294;27;49867;-64
2022/05/05 10:15:02;;;;;;;;;9.75;9.75;;;;;19.16;51.33;102099.88;5071519;28;50004;-65
2022/05/05 10:17:28;;;;;;;;;8.25;6.00;;;;;19.18;51.79;102098.13;5070999;27;50397;-64
2022/05/05 10:19:54;;;;;;;;;9.25;8.25;;;;;19.23;50.70;102098.16;5071328;28;49966;-64
2022/05/05 10:22:33;;;;;;;;;7.75;7.75;;;;;19.21;51.15;102106.13;5069890;28;49691;-64
2022/05/05 10:25:09;;;;;;;;;8.25;8.25;;;;;19.26;51.07;102099.06;5071108;28;49721;-64
2022/05/05 10:27:41;;;;;;;;;8.00;8.00;;;;;19.33;51.59;102094.66;5069238;28;50720;-65
2022/05/05 10:30:14;;;;;;;;;10.50;8.25;;;;;19.47;50.74;102081.41;5070840;28;49866;-65
2022/05/05 10:32:39;;;;;;;;;8.50;8.50;;;;;19.65;50.40;102090.41;5070698;27;49971;-68
2022/05/05 10:35:23;;;;;;;;;5.75;5.75;;;;;19.73;49.13;102099.34;5070939;28;49817;-65
2022/05/05 10:37:48;;;;;;;;;4.75;4.75;;;;;19.77;47.08;102100.22;5064123;28;49985;-66
2022/05/05 10:40:14;;;;;;;;;6.00;5.50;;;;;19.68;46.98;102086.88;5070363;28;49729;-64
2022/05/05 10:42:45;;;;;;;;;3.75;3.75;;;;;19.72;46.29;102097.56;5070750;28;49868;-64
2022/05/05 10:45:18;;;;;;;;;5.25;5.25;;;;;19.96;46.07;102106.53;5071081;28;49807;-64
2022/05/05 10:47:57;;;;;;;;;6.25;6.25;;;;;20.17;44.61;102093.28;5070593;28;49747;-66
2022/05/05 10:50:33;;;;;;;;;5.75;5.75;;;;;20.25;44.37;102088.84;5070346;28;49780;-66
2022/05/05 10:52:59;;;;;;;;;5.75;4.25;;;;;20.25;43.77;102082.59;5070092;28;49680;-64
2022/05/05 10:55:32;;;;;;;;;6.50;6.50;;;;;20.20;44.12;102079.94;5071010;28;49787;-64
2022/05/05 10:57:58;;;;;;;;;7.50;7.00;;;;;20.11;45.21;102087.94;5069895;27;49941;-64
2022/05/05 11:00:24;;;;;;;;;6.50;6.50;;;;;20.11;45.26;102085.25;5069934;28;49788;-65
2022/05/05 11:02:58;;;;;;;;;6.25;6.25;;;;;20.23;45.16;102098.63;5070716;28;49703;-66
2022/05/05 11:05:28;;;;;;;;;6.00;6.00;;;;;20.27;44.71;102107.53;5070693;28;49916;-68
2022/05/05 11:07:54;;;;;;;;;7.75;7.75;;;;;20.27;44.00;102099.53;5069802;28;50271;-68
2022/05/05 11:10:38;;;;;;;;;6.00;4.25;;;;;20.44;44.40;102097.78;5070235;27;49913;-68
2022/05/05 11:13:03;;;;;;;;;5.25;5.00;;;;;20.53;44.23;102086.25;5070329;28;49677;-65
2022/05/05 11:21:33;;;;;;;;;5.75;5.75;;;;;20.37;44.26;102079.09;5070197;28;49691;-64
2022/05/05 11:24:04;;;;;;;;;7.00;7.00;;;;;20.35;43.73;102075.50;5070085;27;49855;-67
2022/05/05 11:26:32;;;;;;;;;4.25;4.25;;;;;20.38;43.34;102095.09;5070180;28;49806;-64
2022/05/05 11:28:58;;;;;;;;;6.50;6.50;;;;;20.41;42.55;102100.44;5070504;28;50750;-68
2022/05/05 11:31:30;;;;;;;;;5.00;5.00;;;;;20.38;42.49;102099.53;5068702;28;49798;-67
2022/05/05 11:34:00;;;;;;;;;5.00;5.00;;;;;20.56;42.22;102079.16;5070066;27;50000;-66
2022/05/05 11:36:29;;;;;;;;;4.50;4.50;;;;;20.80;41.75;102083.59;5070579;27;49706;-69
2022/05/05 11:38:56;;;;;;;;;2.75;2.75;;;;;20.93;40.88;102087.13;5069652;28;50789;-66
2022/05/05 11:41:23;;;;;;;;;5.25;5.25;;;;;20.88;41.07;102072.91;5069811;28;49709;-65
2022/05/05 11:46:33;;;;;;;;;6.50;4.50;;;;;20.80;41.52;102077.34;5069869;28;49723;-64